Current Conditions

Updated: 19-Sep-2014 4:48am  
Summary / Temperature Wind Rain






Feels like: 66°F

1-hour difference
0.3°F 0.3°F colder than last hour.

24-hour difference
1.6°F1.6°F warmer than yesterday at this time.

  Today Yesterday
High: 72.1°F
12:00am
91.5°F
3:34pm
Low: 66.0°F
4:43am
63.1°F
7:13am
 Calm WNW
0.0
Gust:  0 mph
0 Beaufort - Calm

Today: 2 - 12:01am
Month: 9 mph - Sep 10
Rain Today: 0.00 in
Current Rate (/hr): 0.00 in
Max Rate (/hr):
Rain Yesterday: 0.00 in
Storm Rain: 0.00 in
This Month: 0.01 in
Season Total: 0.01 in
Last Rain Event: 11 days ago
Humidity / Barometer Sun / Moon
Humidity: 79  
Dew Point: 59.4°F Decreased 0.3°F in the last hour.
Barometer: 29.807 inHg  
Baro Trend: Steady
Sunrise: 6:41am
Sunset: 6:58pm
Moonrise: 2:36am
Moonset: 4:18pm
Sky Conditions UV Index
Sky: Mostly cloudy
Visibility: 10 miles
Clouds: Mostly cloudy @ 9,000 ft
Current: 0.0  None 
Friday: 6.8  High 
Saturday: 6.4  High 
Air Quality Fire Danger
PM 2.5 Good
Ozone Good
Current: 1  Low 

Local Alerts Local Forecast
Local NWS Alerts
Today

Sunny

High 89
Tonight

Clear

Low 63
Sat

Sunny

High 94
Sat night

Mostly
Clear
Low 63
Sun

Sunny

High 92
Sun night

Mostly
Clear
Low 62
Mon

Hot

High 96

Local Radar Local Satellite Neighborhood Cam Sky Cam
Local Radar Local Satellite Neighborhood Cam Sky Cam


Nearby METAR Reports

KPTV - Porterville, California, USA
Distance from station: SSW 4mi, 7km
Updated: Fri, 19-Sep-2014 4:35am PDT
Few Clouds
Few Clouds
 Wind from calm
Wind: Calm
Temperature: 64°F , 18°C
Dew Point: 55°F , 13°C
Humidity: 73%
Barometer: 29.88 inHg , 1011.9 hPa
Clouds: Few Clouds
Visibility: 10 miles , 16 km
Cloud details: Few Clouds 9000 ft
2014/09/19 11:35 KPTV 191135Z 00000KT 10SM FEW090 18/13 A2988 RMK AO1
KVIS - Visalia, California, USA
Distance from station: NW 27mi, 43km
Updated: Fri, 19-Sep-2014 4:35am PDT

 Wind from W
Wind: W 5 mph , 7 km/h
Temperature: 64°F , 18°C
Dew Point: 55°F , 13°C
Humidity: 73%
Barometer: 29.86 inHg , 1011.2 hPa
Visibility: 10 miles , 16 km
2014/09/19 11:35 KVIS 191135Z AUTO 27004KT 10SM 18/13 A2986 RMK AO1

Metar display script from Saratoga-Weather.org



Visitor Map

Locations of visitors to this page